createdAt,value
2018-02-25T02:38:36.810Z,97748.45
2018-02-25T02:41:04.375Z,97764.98
2018-02-25T02:43:31.891Z,97774.59
2018-02-25T02:45:59.897Z,97765.13
2018-02-25T02:48:27.442Z,97776.05
2018-02-25T02:50:54.971Z,97770.09
2018-02-25T02:53:22.710Z,97780.17
2018-02-25T02:55:50.221Z,97776.08
2018-02-25T02:58:17.738Z,97782.02
2018-02-25T03:00:45.287Z,97782.44
2018-02-25T03:03:12.811Z,97787.66
2018-02-25T03:05:40.369Z,97784.36
2018-02-25T03:08:07.903Z,97790.40
2018-02-25T03:10:35.417Z,97787.06
2018-02-25T03:13:02.958Z,97794.41
2018-02-25T03:15:30.730Z,97787.94
2018-02-25T03:17:58.300Z,97795.93
2018-02-25T03:20:25.822Z,97785.09
2018-02-25T03:22:53.339Z,97782.17
2018-02-25T03:25:20.911Z,97784.06
2018-02-25T03:27:48.423Z,97787.38
2018-02-25T03:30:16.147Z,97790.18
2018-02-25T03:32:43.668Z,97789.11
2018-02-25T03:35:11.182Z,97785.59
2018-02-25T03:37:38.722Z,97786.18
2018-02-25T03:40:06.234Z,97789.15
2018-02-25T03:42:34.086Z,97789.20
2018-02-25T03:45:01.608Z,97792.35
2018-02-25T03:47:29.138Z,97791.34
2018-02-25T03:49:56.686Z,97791.02
2018-02-25T03:52:24.206Z,97790.73
2018-02-25T03:54:51.758Z,97789.59
2018-02-25T03:57:19.274Z,97795.92
2018-02-25T03:59:46.798Z,97793.48
2018-02-25T04:02:14.337Z,97796.89
2018-02-25T04:04:41.857Z,97793.81
2018-02-25T04:07:09.836Z,97787.25
2018-02-25T04:09:37.365Z,97791.34
2018-02-25T04:12:04.886Z,97791.05
2018-02-25T04:14:32.430Z,97796.14
2018-02-25T04:16:59.950Z,97797.91
2018-02-25T04:19:27.624Z,97795.42
2018-02-25T04:21:55.137Z,97789.88
2018-02-25T04:24:22.654Z,97788.03
2018-02-25T04:26:50.203Z,97786.92
2018-02-25T04:29:17.731Z,97789.10
2018-02-25T04:31:45.558Z,97795.67
2018-02-25T04:34:13.080Z,97792.66
2018-02-25T04:36:40.601Z,97793.16
2018-02-25T04:39:08.149Z,97797.30
2018-02-25T04:41:35.674Z,97790.86
2018-02-25T04:44:03.230Z,97788.34
2018-02-25T04:46:30.757Z,97791.84
2018-02-25T04:48:58.286Z,97796.19
2018-02-25T04:51:25.838Z,97790.66
2018-02-25T04:53:53.353Z,97800.59
2018-02-25T04:56:21.130Z,97794.73
2018-02-25T04:58:48.649Z,97801.62
2018-02-25T05:01:16.171Z,97810.15
2018-02-25T05:03:43.715Z,97813.14
2018-02-25T05:06:11.247Z,97812.69
2018-02-25T05:08:39.025Z,97806.05
2018-02-25T05:11:06.543Z,97809.99
2018-02-25T05:13:34.061Z,97818.18
2018-02-25T05:16:01.606Z,97817.33
2018-02-25T05:18:29.134Z,97824.21
2018-02-25T05:20:56.822Z,97823.02
2018-02-25T05:23:24.341Z,97825.91
2018-02-25T05:25:51.863Z,97818.95
2018-02-25T05:28:19.433Z,97814.63
2018-02-25T05:30:46.949Z,97824.25
2018-02-25T05:33:14.613Z,97826.89
2018-02-25T05:35:42.154Z,97824.77
2018-02-25T05:38:09.678Z,97821.78
2018-02-25T05:40:37.246Z,97824.46
2018-02-25T05:43:04.767Z,97823.28
2018-02-25T05:45:32.328Z,97827.42
2018-02-25T05:47:59.863Z,97822.45
2018-02-25T05:50:27.387Z,97827.23
2018-02-25T05:52:54.930Z,97833.17
2018-02-25T05:55:22.444Z,97832.55
2018-02-25T05:57:50.214Z,97832.22
2018-02-25T06:00:17.730Z,97836.36
2018-02-25T06:02:45.254Z,97840.72
2018-02-25T06:05:12.804Z,97846.14
2018-02-25T06:07:40.330Z,97847.67
2018-02-25T06:10:08.315Z,97844.18
2018-02-25T06:12:35.825Z,97855.41
2018-02-25T06:15:03.351Z,97857.30
2018-02-25T06:17:30.907Z,97860.30
2018-02-25T06:19:58.430Z,97858.59
2018-02-25T06:22:26.221Z,97867.90
2018-02-25T06:24:53.736Z,97862.59
2018-02-25T06:27:21.258Z,97867.64
2018-02-25T06:29:48.810Z,97877.34
2018-02-25T06:32:16.876Z,97873.38
2018-02-25T06:34:44.566Z,97873.06
2018-02-25T06:37:12.086Z,97875.03
2018-02-25T06:39:39.593Z,97876.95
2018-02-25T06:42:07.170Z,97875.69
2018-02-25T06:44:34.696Z,97879.87
2018-02-25T06:47:02.265Z,97879.48
2018-02-25T06:49:29.834Z,97874.59
2018-02-25T06:51:57.371Z,97884.25
2018-02-25T06:54:24.930Z,97881.29
2018-02-25T06:56:52.464Z,97885.13
2018-02-25T06:59:20.152Z,97888.50
2018-02-25T07:01:47.676Z,97890.48
2018-02-25T07:04:15.199Z,97893.41
2018-02-25T07:06:42.741Z,97887.88
2018-02-25T07:09:11.097Z,97897.94
2018-02-25T07:11:38.800Z,97898.88
2018-02-25T07:14:06.317Z,97906.61
2018-02-25T07:16:33.834Z,97905.02
2018-02-25T07:19:01.388Z,97905.52
2018-02-25T07:21:28.922Z,97907.73
2018-02-25T07:23:56.625Z,97911.59
2018-02-25T07:26:24.179Z,97917.12
2018-02-25T07:28:51.694Z,97913.84
2018-02-25T07:31:19.250Z,97903.98
2018-02-25T07:33:47.701Z,97910.83
2018-02-25T07:36:15.434Z,97907.75
2018-02-25T07:38:42.961Z,97910.16
2018-02-25T07:41:10.477Z,97917.73
2018-02-25T07:43:38.019Z,97915.45
2018-02-25T07:46:05.534Z,97919.48
2018-02-25T07:48:33.374Z,97928.34
2018-02-25T07:51:00.899Z,97919.39
2018-02-25T07:53:28.439Z,97916.52
2018-02-25T07:55:56.060Z,97915.25
2018-02-25T07:58:23.538Z,97912.92
2018-02-25T08:00:51.385Z,97916.56
2018-02-25T08:03:18.909Z,97917.55
2018-02-25T08:05:46.434Z,97911.86
2018-02-25T08:08:13.986Z,97914.42
2018-02-25T08:10:41.507Z,97910.69
2018-02-25T08:13:09.254Z,97913.52
2018-02-25T08:15:36.772Z,97918.44
2018-02-25T08:18:04.294Z,97911.79
2018-02-25T08:20:31.864Z,97907.92
2018-02-25T08:22:59.427Z,97906.56
2018-02-25T08:25:27.162Z,97904.73
2018-02-25T08:27:54.714Z,97912.77
2018-02-25T08:30:22.242Z,97909.74
2018-02-25T08:32:49.842Z,97917.66
2018-02-25T08:35:17.597Z,97914.46
2018-02-25T08:37:45.473Z,97921.20
2018-02-25T08:40:13.080Z,97918.32
2018-02-25T08:42:40.602Z,97906.11
2018-02-25T08:45:08.247Z,97918.41
2018-02-25T08:47:35.805Z,97918.13
2018-02-25T08:50:03.978Z,97922.02
2018-02-25T08:52:31.641Z,97907.17
2018-02-25T08:54:59.183Z,97914.44
2018-02-25T08:57:26.962Z,97909.14
2018-02-25T08:59:54.828Z,97903.80
2018-02-25T09:02:22.810Z,97915.90
2018-02-25T09:04:50.350Z,97910.49
2018-02-25T09:07:17.956Z,97914.64
2018-02-25T09:09:45.885Z,97913.24
2018-02-25T09:12:13.449Z,97912.17
2018-02-25T09:14:41.134Z,97909.30
2018-02-25T09:17:08.772Z,97915.76
2018-02-25T09:19:36.532Z,97904.64
2018-02-25T09:22:04.500Z,97909.30
2018-02-25T09:24:32.368Z,97901.83
2018-02-25T09:26:59.980Z,97902.61
2018-02-25T09:29:27.548Z,97903.43
2018-02-25T09:31:55.077Z,97887.66
2018-02-25T09:34:22.894Z,97900.22
2018-02-25T09:36:51.093Z,97895.45
2018-02-25T09:39:18.952Z,97888.03
2018-02-25T09:41:46.602Z,97888.64
2018-02-25T09:44:14.349Z,97891.02
2018-02-25T09:46:42.144Z,97878.22
2018-02-25T09:49:10.007Z,97888.77
2018-02-25T09:51:37.605Z,97880.46
2018-02-25T09:54:05.324Z,97883.54
2018-02-25T09:56:33.000Z,97881.52
2018-02-25T09:59:00.602Z,97876.36
2018-02-25T10:01:28.134Z,97882.55
2018-02-25T10:03:56.182Z,97884.92
2018-02-25T10:06:23.716Z,97873.66
2018-02-25T10:08:51.240Z,97879.28
2018-02-25T10:11:18.859Z,97879.25
2018-02-25T10:13:46.382Z,97870.78
2018-02-25T10:16:14.023Z,97869.55
2018-02-25T10:18:41.615Z,97864.70
2018-02-25T10:21:09.419Z,97866.80
2018-02-25T10:23:37.167Z,97873.64
2018-02-25T10:26:05.033Z,97873.84
2018-02-25T10:28:32.910Z,97870.35
2018-02-25T10:31:00.765Z,97861.88
2018-02-25T10:33:28.632Z,97864.14
2018-02-25T10:35:56.397Z,97855.43
2018-02-25T10:38:25.096Z,97858.06
2018-02-25T10:40:52.949Z,97862.88
2018-02-25T10:43:21.227Z,97857.63
2018-02-25T10:45:49.009Z,97856.95
2018-02-25T10:48:16.859Z,97847.38
2018-02-25T10:50:45.233Z,97844.63
2018-02-25T10:53:13.303Z,97847.09
2018-02-25T10:55:41.137Z,97843.25
2018-02-25T10:58:09.007Z,97842.23
2018-02-25T11:00:36.971Z,97841.27
2018-02-25T11:03:04.767Z,97836.02
2018-02-25T11:05:32.568Z,97834.34
2018-02-25T11:08:01.116Z,97829.20
2018-02-25T11:10:29.085Z,97828.31
2018-02-25T11:12:57.031Z,97830.20
2018-02-25T11:15:24.971Z,97826.72
2018-02-25T11:17:53.873Z,97825.75
2018-02-25T11:20:21.566Z,97821.64
2018-02-25T11:22:49.226Z,97817.60
2018-02-25T11:25:17.001Z,97830.05
2018-02-25T11:27:44.969Z,97827.13
2018-02-25T11:30:12.839Z,97828.19
2018-02-25T11:32:41.522Z,97830.80
2018-02-25T11:35:09.167Z,97818.80
2018-02-25T11:37:36.846Z,97828.34
2018-02-25T11:40:04.405Z,97812.48
2018-02-25T11:42:32.156Z,97823.64
2018-02-25T11:44:59.931Z,97814.22
2018-02-25T11:47:27.595Z,97807.30
2018-02-25T11:49:55.211Z,97814.74
2018-02-25T11:52:23.024Z,97809.12
2018-02-25T11:54:50.884Z,97809.57
2018-02-25T11:57:18.558Z,97798.62
2018-02-25T11:59:46.193Z,97794.83
2018-02-25T12:02:14.768Z,97795.63
2018-02-25T12:04:42.451Z,97795.20
2018-02-25T12:07:10.420Z,97784.67
2018-02-25T12:09:38.395Z,97789.78
2018-02-25T12:12:06.144Z,97786.17
2018-02-25T12:14:34.019Z,97781.40
2018-02-25T12:17:01.588Z,97782.67
2018-02-25T12:19:29.203Z,97779.02
2018-02-25T12:21:56.722Z,97771.62
2018-02-25T12:24:24.463Z,97775.32
2018-02-25T12:26:52.328Z,97776.50
2018-02-25T12:29:20.197Z,97778.33
2018-02-25T12:31:48.131Z,97777.75
2018-02-25T12:34:15.730Z,97775.95
2018-02-25T12:36:43.488Z,97770.46
2018-02-25T12:39:11.354Z,97775.87
2018-02-25T12:41:39.121Z,97778.37
2018-02-25T12:44:07.290Z,97775.22
2018-02-25T12:46:35.159Z,97774.93
2018-02-25T12:49:04.155Z,97768.42
2018-02-25T12:51:32.121Z,97776.81
2018-02-25T12:54:00.307Z,97771.82
2018-02-25T12:56:28.588Z,97763.92
2018-02-25T12:58:56.265Z,97768.37
2018-02-25T13:01:24.099Z,97761.61
2018-02-25T13:03:52.068Z,97760.86
2018-02-25T13:06:20.311Z,97770.64
2018-02-25T13:08:48.253Z,97765.38
2018-02-25T13:11:16.176Z,97762.02
2018-02-25T13:13:44.468Z,97763.12
2018-02-25T13:16:12.421Z,97757.03
2018-02-25T13:18:40.696Z,97749.91
2018-02-25T13:21:08.565Z,97766.65
2018-02-25T13:23:36.433Z,97755.97
2018-02-25T13:26:04.467Z,97750.98
2018-02-25T13:28:32.368Z,97756.59
2018-02-25T13:31:00.234Z,97748.31
2018-02-25T13:33:28.113Z,97751.23
2018-02-25T13:35:55.966Z,97741.31
2018-02-25T13:38:23.833Z,97745.05
2018-02-25T13:40:51.802Z,97735.07
2018-02-25T13:43:20.796Z,97742.59
2018-02-25T13:45:48.661Z,97731.84
2018-02-25T13:48:16.890Z,97732.06
2018-02-25T13:50:44.704Z,97735.66
2018-02-25T13:53:12.891Z,97729.91
2018-02-25T13:55:40.640Z,97733.16
2018-02-25T13:58:08.506Z,97731.39
2018-02-25T14:00:36.373Z,97733.16
2018-02-25T14:03:04.237Z,97736.19
2018-02-25T14:05:32.009Z,97729.83
2018-02-25T14:08:00.382Z,97730.41
2018-02-25T14:10:28.246Z,97732.48
2018-02-25T14:12:56.279Z,97733.12
2018-02-25T14:15:24.287Z,97730.44
2018-02-25T14:17:52.460Z,97734.52
2018-02-25T14:20:21.762Z,97734.45
2018-02-25T14:22:50.095Z,97734.38
2018-02-25T14:25:18.106Z,97731.19
2018-02-25T14:27:46.178Z,97732.80
2018-02-25T14:30:14.044Z,97737.70
2018-02-25T14:32:43.139Z,97731.86
2018-02-25T14:35:11.724Z,97738.84
2018-02-25T14:37:39.693Z,97723.21
2018-02-25T14:40:07.558Z,97723.86
2018-02-25T14:42:36.550Z,97723.31
2018-02-25T14:45:04.895Z,97719.63
2018-02-25T14:47:32.591Z,97725.89
2018-02-25T14:50:00.865Z,97731.08
2018-02-25T14:52:28.733Z,97729.47
2018-02-25T14:54:56.704Z,97726.44
2018-02-25T14:57:25.694Z,97724.55
2018-02-25T14:59:53.765Z,97725.52
2018-02-25T15:02:21.737Z,97722.19
2018-02-25T15:04:50.523Z,97720.41
2018-02-25T15:07:19.310Z,97721.63
2018-02-25T15:09:47.384Z,97719.34
2018-02-25T15:12:15.359Z,97716.89
2018-02-25T15:14:43.692Z,97714.48
2018-02-25T15:17:12.009Z,97720.13
2018-02-25T15:19:39.975Z,97725.20
2018-02-25T15:22:07.858Z,97727.69
2018-02-25T15:24:36.157Z,97723.41
2018-02-25T15:27:04.206Z,97728.95
2018-02-25T15:29:35.740Z,97722.83
2018-02-25T15:32:04.632Z,97722.98
2018-02-25T15:34:33.638Z,97724.30
2018-02-25T15:37:01.488Z,97719.20
2018-02-25T15:39:29.766Z,97718.99
2018-02-25T15:41:58.046Z,97727.77
2018-02-25T15:44:26.624Z,97721.98
2018-02-25T15:46:54.490Z,97719.25
2018-02-25T15:49:22.364Z,97716.28
2018-02-25T15:51:50.886Z,97722.13
2018-02-25T15:54:18.783Z,97717.64
2018-02-25T15:56:46.647Z,97721.39
2018-02-25T15:59:14.540Z,97721.09
2018-02-25T16:01:42.792Z,97721.89
2018-02-25T16:04:10.784Z,97725.10
2018-02-25T16:06:38.651Z,97721.62
2018-02-25T16:09:06.926Z,97720.91
2018-02-25T16:11:34.794Z,97719.53
2018-02-25T16:14:02.471Z,97722.23
2018-02-25T16:16:31.242Z,97722.97
2018-02-25T16:18:59.518Z,97726.32
2018-02-25T16:21:27.487Z,97726.16
2018-02-25T16:23:55.325Z,97725.98
2018-02-25T16:26:23.322Z,97723.69
2018-02-25T16:28:51.466Z,97728.52
2018-02-25T16:31:19.250Z,97726.48
2018-02-25T16:33:47.638Z,97727.36
2018-02-25T16:36:16.427Z,97735.02
2018-02-25T16:38:44.396Z,97730.66
2018-02-25T16:41:12.363Z,97740.60
2018-02-25T16:43:40.231Z,97736.00
2018-02-25T16:46:08.311Z,97744.17
2018-02-25T16:48:36.170Z,97746.20
2018-02-25T16:51:04.751Z,97755.77
2018-02-25T16:53:32.723Z,97751.27
2018-02-25T16:56:00.791Z,97750.23
2018-02-25T16:58:28.759Z,97746.68
2018-02-25T17:00:56.508Z,97752.34
2018-02-25T17:03:24.371Z,97760.34
2018-02-25T17:05:52.256Z,97761.45
2018-02-25T17:08:21.147Z,97766.32
2018-02-25T17:10:49.125Z,97768.00
2018-02-25T17:13:18.079Z,97769.56
2018-02-25T17:15:46.693Z,97775.77
2018-02-25T17:18:14.577Z,97778.38
2018-02-25T17:20:42.300Z,97778.47
2018-02-25T17:23:10.290Z,97789.28
2018-02-25T17:25:38.114Z,97788.88
2018-02-25T17:28:06.343Z,97786.16
2018-02-25T17:30:34.403Z,97786.55
2018-02-25T17:33:02.575Z,97787.55
2018-02-25T17:35:30.647Z,97794.73
2018-02-25T17:37:58.463Z,97794.90
2018-02-25T17:40:26.356Z,97792.98
2018-02-25T17:42:54.347Z,97791.53
2018-02-25T17:45:22.214Z,97799.88
2018-02-25T17:47:50.492Z,97790.30
2018-02-25T17:50:18.257Z,97798.89
2018-02-25T17:52:47.115Z,97799.69
2018-02-25T17:55:24.375Z,97799.94
2018-02-25T17:57:42.778Z,97803.33
2018-02-25T18:00:10.845Z,97800.25
2018-02-25T18:02:39.006Z,97801.58
2018-02-25T18:05:06.860Z,97799.27
2018-02-25T18:07:34.775Z,97801.34
2018-02-25T18:10:02.580Z,97801.11
2018-02-25T18:12:32.073Z,97803.19
2018-02-25T18:15:00.398Z,97804.61
2018-02-25T18:17:28.173Z,97803.77
2018-02-25T18:19:56.131Z,97804.96
2018-02-25T18:22:24.307Z,97807.51
2018-02-25T18:24:52.494Z,97804.36
2018-02-25T18:27:21.061Z,97803.32
2018-02-25T18:29:48.837Z,97804.92
2018-02-25T18:32:16.794Z,97808.09
2018-02-25T18:34:44.660Z,97803.82
2018-02-25T18:37:12.836Z,97801.36
2018-02-25T18:39:41.726Z,97811.83
2018-02-25T18:42:10.925Z,97804.12
2018-02-25T18:44:38.801Z,97806.05
2018-02-25T18:47:06.658Z,97806.74
2018-02-25T18:49:34.625Z,97808.16
2018-02-25T18:52:02.491Z,97805.06
2018-02-25T18:54:30.995Z,97805.83
2018-02-25T18:56:58.940Z,97803.55
2018-02-25T18:59:26.908Z,97805.95
2018-02-25T19:01:56.860Z,97809.97
2018-02-25T19:04:26.944Z,97812.45
2018-02-25T19:06:56.044Z,97810.76
2018-02-25T19:09:23.972Z,97812.89
2018-02-25T19:11:51.975Z,97808.16
2018-02-25T19:14:20.459Z,97811.25
2018-02-25T19:16:48.428Z,97808.43
2018-02-25T19:19:17.316Z,97806.53
2018-02-25T19:21:44.996Z,97809.11
2018-02-25T19:24:13.970Z,97804.98
2018-02-25T19:26:42.008Z,97808.08
2018-02-25T19:29:09.909Z,97808.64
2018-02-25T19:31:38.240Z,97806.92
2018-02-25T19:34:06.135Z,97799.13
2018-02-25T19:36:39.963Z,97808.43
2018-02-25T19:39:13.218Z,97808.77
2018-02-25T19:41:46.667Z,97807.38
2018-02-25T19:44:14.418Z,97806.72
2018-02-25T19:46:42.278Z,97808.03
2018-02-25T19:49:10.258Z,97800.08
2018-02-25T19:51:38.222Z,97805.08
2018-02-25T19:54:09.519Z,97808.56
2018-02-25T19:56:37.327Z,97808.02
2018-02-25T19:59:05.572Z,97807.38
2018-02-25T20:04:07.721Z,97810.38
2018-02-25T20:06:36.375Z,97810.31
2018-02-25T20:09:04.287Z,97807.41
2018-02-25T20:11:32.521Z,97813.11
2018-02-25T20:14:01.405Z,97817.25
2018-02-25T20:16:29.272Z,97815.14
2018-02-25T20:18:58.073Z,97815.70
2018-02-25T20:21:25.927Z,97820.67
2018-02-25T20:23:54.100Z,97818.64
2018-02-25T20:26:22.105Z,97815.29
2018-02-25T20:28:50.038Z,97811.73
2018-02-25T20:31:18.827Z,97815.87
2018-02-25T20:33:46.691Z,97816.61
2018-02-25T20:36:15.377Z,97815.09
2018-02-25T20:38:43.212Z,97809.12
2018-02-25T20:41:11.601Z,97815.53
2018-02-25T20:43:39.900Z,97815.63
2018-02-25T20:46:08.081Z,97814.97
2018-02-25T20:48:36.042Z,97810.11
2018-02-25T20:51:04.113Z,97809.06
2018-02-25T20:53:31.990Z,97807.98
2018-02-25T20:56:00.003Z,97805.49
2018-02-25T20:58:27.916Z,97810.95
2018-02-25T21:00:55.783Z,97810.34
2018-02-25T21:03:25.074Z,97810.50
2018-02-25T21:05:53.256Z,97808.48
2018-02-25T21:08:22.045Z,97809.16
2018-02-25T21:10:50.027Z,97807.80
2018-02-25T21:13:17.837Z,97811.20
2018-02-25T21:15:45.747Z,97808.33
2018-02-25T21:18:14.400Z,97813.99
2018-02-25T21:20:42.537Z,97810.08
2018-02-25T21:23:12.110Z,97806.55
2018-02-25T21:25:40.102Z,97807.36
2018-02-25T21:28:07.946Z,97804.30
2018-02-25T21:30:36.224Z,97812.31
2018-02-25T21:33:04.402Z,97805.99
2018-02-25T21:35:32.295Z,97808.89
2018-02-25T21:38:00.199Z,97816.31
2018-02-25T21:40:28.073Z,97810.83
2018-02-25T21:42:55.965Z,97822.00
2018-02-25T21:45:23.859Z,97825.40
2018-02-25T21:47:51.708Z,97829.93
2018-02-25T21:50:19.462Z,97826.81
2018-02-25T21:52:47.429Z,97827.31
2018-02-25T21:55:15.203Z,97827.00
2018-02-25T21:57:52.380Z,97826.84
2018-02-25T22:03:29.676Z,97836.20
2018-02-25T22:05:57.553Z,97823.29
2018-02-25T22:08:25.383Z,97826.77
2018-02-25T22:10:53.490Z,97827.93
2018-02-25T22:13:21.338Z,97832.05
2018-02-25T22:15:49.143Z,97828.24
2018-02-25T22:18:17.153Z,97841.97
2018-02-25T22:20:44.813Z,97834.64
2018-02-25T22:23:12.350Z,97827.81
2018-02-25T22:25:40.061Z,97830.40
2018-02-25T22:28:08.592Z,97829.20
2018-02-25T22:30:36.321Z,97823.52
2018-02-25T22:33:04.197Z,97823.95
2018-02-25T22:35:32.011Z,97822.97
2018-02-25T22:37:59.818Z,97820.16
2018-02-25T22:40:27.685Z,97813.46
2018-02-25T22:42:55.653Z,97825.67
2018-02-25T22:45:23.519Z,97823.75
2018-02-25T22:47:51.181Z,97825.91
2018-02-25T22:50:18.831Z,97823.27
2018-02-25T22:52:46.399Z,97826.16
2018-02-25T22:55:14.062Z,97824.52
2018-02-25T22:57:41.594Z,97828.75
2018-02-25T23:00:09.494Z,97818.17
2018-02-25T23:02:37.149Z,97826.08
2018-02-25T23:05:05.017Z,97822.26
2018-02-25T23:07:32.741Z,97828.78
2018-02-25T23:10:00.534Z,97828.06
2018-02-25T23:12:29.127Z,97827.78
2018-02-25T23:14:56.970Z,97828.91
2018-02-25T23:17:25.562Z,97828.44
2018-02-25T23:19:53.336Z,97829.86
2018-02-25T23:22:20.919Z,97827.19
2018-02-25T23:24:49.290Z,97831.91
2018-02-25T23:27:17.109Z,97833.94
2018-02-25T23:29:44.681Z,97834.53
2018-02-25T23:32:12.674Z,97840.28
2018-02-25T23:34:40.418Z,97838.19
2018-02-25T23:37:08.152Z,97836.45
2018-02-25T23:39:35.761Z,97834.41
2018-02-25T23:42:03.720Z,97833.27
2018-02-25T23:44:31.300Z,97828.36
2018-02-25T23:46:59.041Z,97827.25
2018-02-25T23:49:26.712Z,97827.52
2018-02-25T23:51:54.580Z,97824.75
2018-02-25T23:54:22.447Z,97823.94
2018-02-25T23:56:50.314Z,97821.80
2018-02-25T23:59:17.954Z,97827.03
